Basingstoke, United Kingdom
Current Conditions -  °F | °C
As of 1:50 PM on Thursday 30 Oct 2014 (Local Time) from EGVO Reporting Station
Broken Clouds Broken Clouds  
Wind Chill: 63°   Ceiling: 1400
Heat Index: 63°   Visibility: 6mi
Dew Point: 59°   Wind: 6mph
Humidity: 88%   Direction: 200°SSW
Pressure: 30.06"   Gusts: NA
Location:  51.26°N, 1.08°W
Report Text: EGVO 301350Z 20005KT 9999 FEW012 BKN014 17/15 Q1018 GRN NOSIG
Loading
Personal Weather Stations






























Interactive Weather Map New forecast layout! Learn more

10-Day Weather Forecast

Advertisements
Track Severe Weather on mobile